Time;durP1;ratioP1;P1;durP2;ratioP2;P2;SDS_P1;SDS_P2;PMS_P1;PMS_P2;Temp;Humidity;BMP_temperature;BMP_pressure;BME280_temperature;BME280_humidity;BME280_pressure;Samples;Min_cycle;Max_cycle;Signal;HPM_P1;HPM_P2
2023/07/17 00:01:37;;;;;;;10.27;2.65;;;18.10;99.90;;;;;;5030414;28;20152;-71
2023/07/17 00:04:04;;;;;;;10.25;2.53;;;18.10;99.90;;;;;;5030419;28;20053;-71
2023/07/17 00:06:29;;;;;;;8.90;2.67;;;18.10;99.90;;;;;;5030257;28;20037;-70
2023/07/17 00:08:55;;;;;;;6.47;2.50;;;18.00;99.90;;;;;;5030539;28;20060;-70
2023/07/17 00:11:21;;;;;;;9.60;2.70;;;18.00;99.90;;;;;;5030212;28;20470;-70
2023/07/17 00:13:47;;;;;;;9.85;2.80;;;18.00;99.90;;;;;;5030526;28;20510;-71
2023/07/17 00:16:13;;;;;;;9.88;2.67;;;18.00;99.90;;;;;;5028542;28;20041;-72
2023/07/17 00:18:38;;;;;;;10.70;3.30;;;18.00;99.90;;;;;;5029886;28;20049;-71
2023/07/17 00:21:05;;;;;;;10.27;3.03;;;17.90;99.90;;;;;;5030244;28;20471;-71
2023/07/17 00:23:31;;;;;;;12.18;3.20;;;17.90;99.90;;;;;;5029069;28;20056;-71
2023/07/17 00:25:58;;;;;;;10.13;3.38;;;17.90;99.90;;;;;;5030294;28;20087;-71
2023/07/17 00:28:23;;;;;;;8.98;2.80;;;18.00;99.90;;;;;;5028696;28;20050;-71
2023/07/17 00:30:49;;;;;;;10.15;2.97;;;17.90;99.90;;;;;;5030034;28;20056;-70
2023/07/17 00:33:15;;;;;;;10.88;2.80;;;17.90;99.90;;;;;;5029894;28;20092;-70
2023/07/17 00:35:41;;;;;;;12.10;3.63;;;17.90;99.90;;;;;;5029773;28;20049;-70
2023/07/17 00:38:07;;;;;;;12.77;3.40;;;17.90;99.90;;;;;;5030276;28;20198;-70
2023/07/17 00:40:34;;;;;;;10.07;3.13;;;17.90;99.90;;;;;;5030002;28;20053;-70
2023/07/17 00:43:01;;;;;;;12.80;3.40;;;17.90;99.90;;;;;;5028743;28;20118;-70
2023/07/17 00:45:32;;;;;;;8.95;3.13;;;17.90;99.90;;;;;;5030004;28;20041;-70
2023/07/17 00:47:59;;;;;;;14.48;3.80;;;17.80;99.90;;;;;;5045023;28;20061;-70
2023/07/17 00:50:25;;;;;;;12.00;3.30;;;17.80;99.90;;;;;;5029580;28;20132;-70
2023/07/17 00:52:51;;;;;;;14.18;3.45;;;17.80;99.90;;;;;;5030544;28;20056;-70
2023/07/17 00:55:18;;;;;;;13.45;3.25;;;17.70;99.90;;;;;;5028287;28;20046;-71
2023/07/17 00:57:44;;;;;;;8.50;3.05;;;17.70;99.90;;;;;;5029827;28;20045;-70
2023/07/17 01:00:12;;;;;;;9.45;2.90;;;17.60;99.90;;;;;;5029878;28;20398;-70
2023/07/17 01:02:39;;;;;;;13.23;3.42;;;17.60;99.90;;;;;;5030718;28;20087;-71
2023/07/17 01:05:05;;;;;;;10.65;3.63;;;17.50;99.90;;;;;;5029997;28;20578;-70
2023/07/17 01:07:31;;;;;;;9.52;2.88;;;17.50;99.90;;;;;;5028552;28;20084;-71
2023/07/17 01:09:57;;;;;;;11.00;2.95;;;17.40;99.90;;;;;;5029139;28;20096;-70
2023/07/17 01:12:23;;;;;;;16.13;3.65;;;17.30;99.90;;;;;;5029087;28;20431;-71
2023/07/17 01:14:49;;;;;;;7.93;2.38;;;17.30;99.90;;;;;;5029222;28;20121;-71
2023/07/17 01:17:14;;;;;;;8.75;2.42;;;17.30;99.90;;;;;;5029487;28;20399;-70
2023/07/17 01:19:40;;;;;;;8.43;2.72;;;17.10;99.90;;;;;;5029157;28;20053;-70
2023/07/17 01:22:30;;;;;;;5.63;2.42;;;17.10;99.90;;;;;;5030458;28;20053;-70
2023/07/17 01:24:55;;;;;;;6.18;2.28;;;17.10;99.90;;;;;;5019203;28;20065;-70
2023/07/17 01:27:21;;;;;;;5.82;2.30;;;17.00;99.90;;;;;;5029954;28;20092;-70
2023/07/17 01:29:47;;;;;;;7.18;2.28;;;17.00;99.90;;;;;;5030974;28;20041;-70
2023/07/17 01:32:13;;;;;;;6.82;2.50;;;16.90;99.90;;;;;;5034114;28;20080;-70
2023/07/17 01:34:39;;;;;;;6.63;2.72;;;16.90;99.90;;;;;;5033580;28;20045;-72
2023/07/17 01:37:08;;;;;;;5.47;2.20;;;16.90;99.90;;;;;;5033948;28;20411;-70
2023/07/17 01:39:34;;;;;;;5.90;2.60;;;16.90;99.90;;;;;;5033676;28;20098;-70
2023/07/17 01:42:00;;;;;;;5.40;2.13;;;16.80;99.90;;;;;;5034022;28;20041;-70
2023/07/17 01:44:28;;;;;;;7.82;2.70;;;16.80;99.90;;;;;;5033579;28;20052;-70
2023/07/17 01:46:54;;;;;;;6.35;2.67;;;16.70;99.90;;;;;;5033769;28;20084;-70
2023/07/17 01:49:20;;;;;;;7.90;2.40;;;16.70;99.90;;;;;;5034103;28;20068;-70
2023/07/17 01:51:46;;;;;;;5.75;2.50;;;16.80;99.90;;;;;;5033777;28;20045;-70
2023/07/17 01:54:11;;;;;;;8.73;3.00;;;16.70;99.90;;;;;;5034000;28;20085;-70
2023/07/17 01:56:37;;;;;;;9.38;2.60;;;16.70;99.90;;;;;;5033156;28;20052;-70
2023/07/17 01:59:03;;;;;;;7.38;2.70;;;16.70;99.90;;;;;;5033496;28;20045;-70
2023/07/17 02:01:28;;;;;;;6.63;2.40;;;16.70;99.90;;;;;;5033168;28;20053;-70
2023/07/17 02:03:54;;;;;;;4.53;2.38;;;16.70;99.90;;;;;;5033703;28;20517;-70
2023/07/17 02:06:20;;;;;;;5.40;2.53;;;16.70;99.90;;;;;;5032359;28;20113;-70
2023/07/17 02:08:46;;;;;;;8.27;2.58;;;16.70;99.90;;;;;;5032764;28;20034;-70
2023/07/17 02:11:12;;;;;;;8.40;2.80;;;16.70;99.90;;;;;;5032063;28;20065;-70
2023/07/17 02:13:38;;;;;;;8.07;2.70;;;16.70;99.90;;;;;;5032940;28;20060;-70
2023/07/17 02:16:04;;;;;;;8.25;2.70;;;16.60;99.90;;;;;;5032752;28;20044;-71
2023/07/17 02:18:31;;;;;;;7.60;2.80;;;16.60;99.90;;;;;;5033250;28;20115;-70
2023/07/17 02:20:56;;;;;;;9.05;3.10;;;16.60;99.90;;;;;;5033144;28;20438;-70
2023/07/17 02:23:22;;;;;;;8.10;2.63;;;16.60;99.90;;;;;;5033460;28;20045;-70
2023/07/17 02:25:48;;;;;;;8.88;2.75;;;16.60;99.90;;;;;;5031299;28;20037;-70
2023/07/17 02:28:17;;;;;;;7.43;2.95;;;16.50;99.90;;;;;;5033220;28;20056;-70
2023/07/17 02:30:43;;;;;;;7.22;2.72;;;16.50;99.90;;;;;;5032833;28;20041;-70
2023/07/17 02:33:09;;;;;;;9.18;3.08;;;16.50;99.90;;;;;;5032982;28;20041;-70
2023/07/17 02:35:34;;;;;;;6.65;3.03;;;16.40;99.90;;;;;;5032521;28;20132;-70
2023/07/17 02:38:00;;;;;;;9.77;2.70;;;16.40;99.90;;;;;;5031366;28;20045;-70
2023/07/17 02:40:26;;;;;;;9.48;2.67;;;16.40;99.90;;;;;;5031331;28;20051;-70
2023/07/17 02:42:51;;;;;;;10.68;3.28;;;16.30;99.90;;;;;;5031581;28;20087;-70
2023/07/17 02:45:17;;;;;;;10.32;2.75;;;16.30;99.90;;;;;;5015236;28;20100;-70
2023/07/17 02:47:43;;;;;;;8.43;3.25;;;16.30;99.90;;;;;;5032413;28;20053;-70
2023/07/17 02:50:09;;;;;;;6.65;2.88;;;16.30;99.90;;;;;;5032802;28;20049;-71
2023/07/17 02:52:36;;;;;;;7.88;2.90;;;16.30;99.90;;;;;;5031399;28;20498;-71
2023/07/17 02:55:04;;;;;;;8.30;3.40;;;16.20;99.90;;;;;;5032316;28;20527;-71
2023/07/17 02:57:33;;;;;;;6.38;2.85;;;16.20;99.90;;;;;;5032549;28;20045;-71
2023/07/17 02:59:59;;;;;;;7.50;2.92;;;16.20;99.90;;;;;;5031929;28;20053;-70
2023/07/17 03:02:24;;;;;;;9.10;3.20;;;16.20;99.90;;;;;;5032624;28;20049;-70
2023/07/17 03:04:50;;;;;;;9.13;3.67;;;16.10;99.90;;;;;;5031636;28;20115;-70
2023/07/17 03:07:16;;;;;;;10.65;3.60;;;16.20;99.90;;;;;;5032495;28;20128;-69
2023/07/17 03:09:41;;;;;;;8.43;3.22;;;16.10;99.90;;;;;;5031928;28;20065;-69
2023/07/17 03:12:07;;;;;;;8.77;3.50;;;16.20;99.90;;;;;;5031818;28;20061;-69
2023/07/17 03:14:33;;;;;;;9.07;3.58;;;16.20;99.90;;;;;;5032242;28;20050;-70
2023/07/17 03:16:58;;;;;;;9.20;3.40;;;16.20;99.90;;;;;;5031459;28;20111;-70
2023/07/17 03:19:24;;;;;;;11.80;3.58;;;16.20;99.90;;;;;;5030648;28;20107;-70
2023/07/17 03:21:50;;;;;;;5.97;3.10;;;16.10;99.90;;;;;;5030398;28;20542;-70
2023/07/17 03:24:15;;;;;;;10.50;4.20;;;16.10;99.90;;;;;;5031946;28;20092;-70
2023/07/17 03:26:41;;;;;;;8.18;3.15;;;16.10;99.90;;;;;;5030398;28;20426;-70
2023/07/17 03:29:08;;;;;;;10.13;3.60;;;16.10;99.90;;;;;;5031717;28;20132;-70
2023/07/17 03:31:34;;;;;;;10.02;3.85;;;16.10;99.90;;;;;;5031761;28;20104;-70
2023/07/17 03:34:00;;;;;;;9.93;3.45;;;16.10;99.90;;;;;;5031658;28;20675;-70
2023/07/17 03:36:25;;;;;;;8.68;3.58;;;16.10;99.90;;;;;;5031796;28;20103;-70
2023/07/17 03:38:51;;;;;;;7.95;3.30;;;16.10;99.90;;;;;;5031219;28;20041;-70
2023/07/17 03:41:20;;;;;;;9.38;3.40;;;16.10;99.90;;;;;;5030804;28;20497;-71
2023/07/17 03:43:46;;;;;;;11.15;3.58;;;16.00;99.90;;;;;;5031187;28;20402;-71
2023/07/17 03:46:13;;;;;;;10.65;3.22;;;16.00;99.90;;;;;;5031635;28;20087;-70
2023/07/17 03:48:39;;;;;;;10.20;3.53;;;16.00;99.90;;;;;;5031779;28;20128;-71
2023/07/17 03:51:04;;;;;;;10.93;3.60;;;16.00;99.90;;;;;;5029944;28;20124;-71
2023/07/17 03:53:30;;;;;;;11.88;3.47;;;16.00;99.90;;;;;;5030323;28;20159;-70
2023/07/17 03:55:56;;;;;;;8.68;3.17;;;15.90;99.90;;;;;;5029988;28;20033;-70
2023/07/17 03:58:22;;;;;;;9.07;3.08;;;16.00;99.90;;;;;;5031442;28;20052;-70
2023/07/17 04:00:47;;;;;;;8.07;3.03;;;15.90;99.90;;;;;;5030128;28;20048;-70
2023/07/17 04:03:13;;;;;;;6.72;3.03;;;15.90;99.90;;;;;;5031240;28;20068;-71
2023/07/17 04:05:39;;;;;;;9.80;2.83;;;15.90;99.90;;;;;;5031332;28;20401;-70
2023/07/17 04:08:04;;;;;;;8.20;3.20;;;15.90;99.90;;;;;;5031046;28;20430;-71
2023/07/17 04:10:31;;;;;;;10.05;3.17;;;15.90;99.90;;;;;;5029971;28;20064;-71
2023/07/17 04:12:57;;;;;;;10.68;3.55;;;15.90;99.90;;;;;;5030594;28;20057;-69
2023/07/17 04:15:22;;;;;;;10.18;2.60;;;15.90;99.90;;;;;;5031170;28;20049;-69
2023/07/17 04:17:48;;;;;;;11.05;3.30;;;15.90;99.90;;;;;;5030595;28;20053;-69
2023/07/17 04:20:14;;;;;;;8.38;2.90;;;15.90;99.90;;;;;;5031195;28;20061;-69
2023/07/17 04:22:40;;;;;;;9.40;3.30;;;15.90;99.90;;;;;;5029790;28;20277;-70
2023/07/17 04:25:06;;;;;;;10.55;2.90;;;15.90;99.90;;;;;;5030569;28;20042;-72
2023/07/17 04:27:32;;;;;;;9.23;3.10;;;15.90;99.90;;;;;;5030298;28;20053;-69
2023/07/17 04:29:57;;;;;;;9.10;2.85;;;15.90;99.90;;;;;;5033285;28;20140;-69
2023/07/17 04:32:24;;;;;;;7.38;2.47;;;15.90;99.90;;;;;;5032693;28;20045;-69
2023/07/17 04:34:49;;;;;;;8.77;2.65;;;15.90;99.90;;;;;;5030444;28;20119;-70
2023/07/17 04:37:17;;;;;;;8.98;3.38;;;16.00;99.90;;;;;;5030873;28;20045;-69
2023/07/17 04:39:42;;;;;;;10.05;3.55;;;16.00;99.90;;;;;;5031118;28;20148;-70
2023/07/17 04:42:09;;;;;;;9.50;2.90;;;16.00;99.90;;;;;;5029221;28;20236;-69
2023/07/17 04:44:34;;;;;;;8.15;2.78;;;16.10;99.90;;;;;;5030490;28;20586;-71
2023/07/17 04:47:00;;;;;;;9.00;3.05;;;16.20;99.90;;;;;;5030390;28;20057;-71
2023/07/17 04:49:26;;;;;;;8.15;2.97;;;16.30;99.90;;;;;;5030528;28;20088;-71
2023/07/17 04:51:52;;;;;;;11.07;3.50;;;16.40;99.90;;;;;;5030312;28;20056;-70
2023/07/17 04:54:17;;;;;;;9.05;2.95;;;16.50;99.90;;;;;;5030667;28;20041;-69
2023/07/17 04:56:43;;;;;;;9.75;2.88;;;16.70;99.90;;;;;;5029200;28;20037;-69
2023/07/17 04:59:09;;;;;;;8.65;3.17;;;17.10;99.90;;;;;;5029989;28;20116;-69
2023/07/17 05:01:34;;;;;;;9.82;2.50;;;17.60;99.90;;;;;;5030454;28;20491;-69
2023/07/17 05:04:00;;;;;;;13.63;3.22;;;18.20;99.90;;;;;;5028371;28;20153;-70
2023/07/17 05:06:26;;;;;;;12.82;3.70;;;18.60;99.90;;;;;;5030004;28;20041;-70
2023/07/17 05:08:51;;;;;;;8.75;3.30;;;19.20;99.90;;;;;;5030129;28;20041;-69
2023/07/17 05:11:17;;;;;;;9.57;3.08;;;19.70;99.90;;;;;;5028408;28;20053;-71
2023/07/17 05:13:43;;;;;;;10.10;2.97;;;20.10;99.90;;;;;;5030413;28;20399;-68
2023/07/17 05:16:09;;;;;;;9.48;2.78;;;20.40;99.90;;;;;;5012008;28;20041;-68
2023/07/17 05:18:35;;;;;;;7.35;2.67;;;20.70;99.90;;;;;;5030126;28;20050;-70
2023/07/17 05:21:00;;;;;;;10.07;3.30;;;21.20;99.90;;;;;;5029978;28;20453;-69
2023/07/17 05:23:26;;;;;;;8.60;2.88;;;21.40;99.90;;;;;;5029880;28;20042;-69
2023/07/17 05:25:54;;;;;;;11.77;3.50;;;21.70;99.90;;;;;;5012727;28;20049;-69
2023/07/17 05:28:20;;;;;;;8.50;2.70;;;21.90;99.90;;;;;;5028456;28;20053;-70
2023/07/17 05:30:50;;;;;;;9.43;2.83;;;22.30;99.90;;;;;;5029909;28;20054;-70
2023/07/17 05:33:15;;;;;;;13.48;3.33;;;22.80;99.90;;;;;;5029613;28;20555;-70
2023/07/17 05:35:41;;;;;;;8.15;2.65;;;23.20;99.90;;;;;;5029739;28;20124;-70
2023/07/17 05:38:07;;;;;;;9.98;2.92;;;23.40;99.90;;;;;;5027734;28;20049;-70
2023/07/17 05:40:35;;;;;;;6.45;2.58;;;23.60;99.70;;;;;;5028383;28;20046;-70
2023/07/17 05:43:01;;;;;;;7.57;2.80;;;23.60;99.70;;;;;;5028171;28;20052;-71
2023/07/17 05:45:26;;;;;;;12.57;3.20;;;23.50;99.40;;;;;;5029434;28;20616;-71
2023/07/17 05:47:52;;;;;;;9.50;2.85;;;23.70;99.20;;;;;;5028878;28;20056;-71
2023/07/17 05:50:19;;;;;;;5.47;2.63;;;23.90;98.90;;;;;;5028258;28;20502;-70
2023/07/17 05:52:44;;;;;;;7.53;3.15;;;23.90;98.50;;;;;;5028443;28;20510;-73
2023/07/17 05:55:11;;;;;;;11.63;3.63;;;24.10;98.10;;;;;;5028105;28;20053;-74
2023/07/17 05:57:36;;;;;;;11.15;3.67;;;23.90;98.50;;;;;;5028622;28;20046;-73
2023/07/17 06:00:03;;;;;;;9.27;3.28;;;23.80;98.20;;;;;;5029631;28;20072;-75
2023/07/17 06:02:29;;;;;;;8.82;2.90;;;24.00;98.60;;;;;;5029304;28;20067;-75
2023/07/17 06:04:55;;;;;;;7.95;3.03;;;24.20;98.20;;;;;;5029505;28;20128;-75
2023/07/17 06:07:21;;;;;;;8.52;3.13;;;24.40;97.70;;;;;;5029139;28;20620;-75
2023/07/17 06:09:46;;;;;;;15.23;3.22;;;24.80;97.70;;;;;;5028174;28;20057;-75
2023/07/17 06:12:12;;;;;;;10.82;3.33;;;25.00;97.10;;;;;;5029125;28;20049;-75
2023/07/17 06:14:38;;;;;;;8.63;3.20;;;25.20;96.50;;;;;;5029735;28;20057;-74
2023/07/17 06:17:04;;;;;;;8.82;3.33;;;25.20;96.30;;;;;;5030874;28;20046;-74
2023/07/17 06:19:30;;;;;;;12.13;3.53;;;25.20;96.40;;;;;;5033578;28;20052;-75
2023/07/17 06:21:55;;;;;;;9.43;3.33;;;25.10;96.40;;;;;;5033351;28;20041;-72
2023/07/17 06:24:21;;;;;;;10.23;3.75;;;25.10;96.70;;;;;;5032048;28;20085;-72
2023/07/17 06:26:47;;;;;;;11.27;4.05;;;25.10;96.50;;;;;;5032231;28;20438;-76
2023/07/17 06:29:12;;;;;;;11.07;3.47;;;24.90;96.20;;;;;;5032040;28;20042;-73
2023/07/17 06:31:38;;;;;;;8.63;3.50;;;25.30;96.50;;;;;;5032343;28;20384;-74
2023/07/17 06:34:04;;;;;;;11.40;4.05;;;25.70;95.90;;;;;;5033171;28;20076;-74
2023/07/17 06:36:32;;;;;;;10.10;3.75;;;25.20;95.80;;;;;;5031361;28;20034;-73
2023/07/17 06:38:58;;;;;;;10.35;3.72;;;25.10;96.60;;;;;;5032893;28;20375;-74
2023/07/17 06:41:23;;;;;;;11.23;3.58;;;25.10;96.50;;;;;;5031554;28;20155;-74
2023/07/17 06:43:49;;;;;;;10.93;4.30;;;24.60;96.60;;;;;;5032827;28;20045;-75
2023/07/17 06:46:16;;;;;;;8.20;3.55;;;24.60;96.90;;;;;;5031384;28;20132;-75
2023/07/17 06:48:42;;;;;;;12.38;3.97;;;24.20;97.20;;;;;;5032999;28;20321;-76
2023/07/17 06:51:08;;;;;;;9.38;4.00;;;24.20;97.70;;;;;;5047037;28;20202;-74
2023/07/17 06:53:34;;;;;;;11.80;4.35;;;24.40;97.00;;;;;;5033650;28;20053;-75
2023/07/17 06:56:00;;;;;;;12.63;3.90;;;24.40;97.20;;;;;;5031671;28;20075;-74
2023/07/17 06:58:27;;;;;;;8.50;3.90;;;24.00;97.50;;;;;;5031498;28;20132;-74
2023/07/17 07:01:00;;;;;;;8.90;3.90;;;23.40;98.20;;;;;;5047756;28;20099;-74
2023/07/17 07:03:27;;;;;;;11.13;4.00;;;23.10;98.50;;;;;;5032518;28;20453;-72
2023/07/17 07:05:57;;;;;;;10.60;3.83;;;23.10;99.00;;;;;;5031936;28;20052;-72
2023/07/17 07:08:27;;;;;;;16.77;4.57;;;23.50;98.40;;;;;;5031967;28;20053;-72
2023/07/17 07:10:54;;;;;;;11.60;4.13;;;23.50;98.20;;;;;;5047442;28;20402;-72
2023/07/17 07:13:21;;;;;;;12.52;3.65;;;23.40;98.40;;;;;;5031992;28;20100;-69
2023/07/17 07:15:47;;;;;;;12.07;3.95;;;23.30;98.50;;;;;;5031311;28;20498;-73
2023/07/17 07:18:13;;;;;;;10.77;4.03;;;23.10;99.10;;;;;;5031043;28;20052;-73
2023/07/17 07:20:39;;;;;;;9.40;4.10;;;22.80;99.30;;;;;;5032139;28;20045;-72
2023/07/17 07:23:05;;;;;;;9.70;3.65;;;22.40;99.90;;;;;;5031331;28;20499;-72
2023/07/17 07:25:31;;;;;;;11.85;4.30;;;22.10;99.90;;;;;;5031687;28;20037;-73
2023/07/17 07:27:59;;;;;;;9.48;4.03;;;21.90;99.90;;;;;;5030388;28;20458;-73
2023/07/17 07:30:25;;;;;;;8.43;3.83;;;22.00;99.90;;;;;;5030404;28;20049;-72
2023/07/17 07:32:50;;;;;;;9.73;4.00;;;21.90;99.90;;;;;;5032132;28;20056;-72
2023/07/17 07:35:16;;;;;;;11.38;3.83;;;21.70;99.90;;;;;;5031908;28;20372;-72
2023/07/17 07:37:42;;;;;;;9.38;3.80;;;21.50;99.90;;;;;;5030410;28;20087;-73
2023/07/17 07:40:12;;;;;;;9.73;3.72;;;21.30;99.90;;;;;;5031682;28;20052;-72
2023/07/17 07:42:42;;;;;;;8.20;3.38;;;21.00;99.90;;;;;;5031656;28;20048;-72
2023/07/17 07:45:11;;;;;;;7.20;3.10;;;20.80;99.90;;;;;;5030210;28;20048;-72
2023/07/17 07:47:38;;;;;;;9.65;3.88;;;20.80;99.90;;;;;;5030073;28;20053;-71
2023/07/17 07:50:04;;;;;;;7.47;3.20;;;21.10;99.90;;;;;;5030555;28;20491;-72
2023/07/17 07:52:30;;;;;;;9.82;4.05;;;21.70;99.90;;;;;;5031043;28;20504;-72
2023/07/17 07:54:56;;;;;;;6.13;2.90;;;22.50;99.90;;;;;;5031470;28;20041;-71
2023/07/17 07:57:22;;;;;;;7.78;3.30;;;23.10;99.90;;;;;;5013544;28;20091;-72
2023/07/17 07:59:50;;;;;;;10.43;3.72;;;23.60;99.80;;;;;;5031626;28;20056;-72
2023/07/17 08:02:17;;;;;;;8.35;3.13;;;24.10;99.00;;;;;;5031612;28;20521;-73
2023/07/17 08:04:46;;;;;;;8.93;3.78;;;24.40;98.50;;;;;;5031194;28;20045;-74
2023/07/17 08:07:11;;;;;;;9.35;3.67;;;24.60;97.10;;;;;;5030028;28;20057;-72
2023/07/17 08:09:37;;;;;;;10.80;3.60;;;24.80;96.90;;;;;;5029913;28;20045;-72
2023/07/17 08:12:04;;;;;;;6.93;3.40;;;25.00;97.00;;;;;;5031220;28;20164;-72
2023/07/17 08:14:30;;;;;;;9.82;3.65;;;24.90;96.60;;;;;;5030861;28;20153;-72
2023/07/17 08:16:55;;;;;;;8.85;3.55;;;24.60;96.50;;;;;;5030867;28;20132;-73
2023/07/17 08:19:21;;;;;;;9.10;3.67;;;24.40;97.00;;;;;;5030502;28;20041;-71
2023/07/17 08:21:47;;;;;;;7.22;3.40;;;24.60;96.90;;;;;;5031300;28;20492;-72
2023/07/17 08:24:13;;;;;;;9.05;3.30;;;24.70;96.90;;;;;;5031276;28;20072;-71
2023/07/17 08:26:39;;;;;;;10.25;3.85;;;24.90;96.40;;;;;;5030376;28;20487;-71
2023/07/17 08:29:06;;;;;;;8.32;3.60;;;24.90;96.60;;;;;;5038833;28;20083;-72
2023/07/17 08:31:32;;;;;;;8.32;3.28;;;24.90;96.50;;;;;;5014031;28;20136;-71
2023/07/17 08:33:59;;;;;;;8.07;3.58;;;25.10;96.50;;;;;;5030900;28;20060;-70
2023/07/17 08:36:26;;;;;;;8.13;3.70;;;25.10;96.50;;;;;;5028897;28;20081;-71
2023/07/17 08:38:53;;;;;;;9.88;3.47;;;24.80;96.40;;;;;;5030256;28;20060;-68
2023/07/17 08:41:18;;;;;;;8.15;3.53;;;24.40;96.80;;;;;;5030736;28;20119;-69
2023/07/17 08:43:45;;;;;;;8.73;3.65;;;24.20;96.70;;;;;;5030544;28;20072;-69
2023/07/17 08:46:12;;;;;;;8.10;3.33;;;24.10;96.90;;;;;;5030589;28;20099;-69
2023/07/17 08:48:44;;;;;;;10.90;3.78;;;24.00;97.10;;;;;;5029536;28;20384;-70
2023/07/17 08:51:14;;;;;;;6.90;3.10;;;23.70;97.10;;;;;;5030576;28;20155;-68
2023/07/17 08:53:42;;;;;;;7.75;2.90;;;23.30;96.80;;;;;;5045430;28;20057;-69
2023/07/17 08:56:11;;;;;;;5.93;2.90;;;23.20;97.20;;;;;;5030463;28;20104;-69
2023/07/17 08:58:37;;;;;;;6.20;2.75;;;22.90;97.10;;;;;;5029905;28;20139;-69
2023/07/17 09:01:04;;;;;;;7.03;3.00;;;22.90;96.80;;;;;;5030727;28;20049;-74
2023/07/17 09:03:32;;;;;;;7.15;2.60;;;23.10;96.00;;;;;;5030258;28;20070;-73
2023/07/17 09:06:01;;;;;;;7.03;2.63;;;23.60;95.80;;;;;;5030663;28;20042;-76
2023/07/17 09:08:27;;;;;;;6.40;2.83;;;24.10;95.60;;;;;;5030752;28;20045;-73
2023/07/17 09:11:19;;;;;;;6.22;2.35;;;24.30;95.00;;;;;;5028808;28;20147;-72
2023/07/17 09:13:47;;;;;;;6.93;2.53;;;24.00;93.30;;;;;;5043370;28;20049;-73
2023/07/17 09:16:15;;;;;;;7.90;2.65;;;23.80;93.10;;;;;;5034945;28;20545;-73
2023/07/17 09:18:41;;;;;;;6.85;2.58;;;23.80;93.40;;;;;;5030160;28;20489;-74
2023/07/17 09:21:07;;;;;;;6.47;2.60;;;24.10;93.80;;;;;;5033953;28;20049;-75
2023/07/17 09:23:44;;;;;;;9.48;2.42;;;24.70;93.70;;;;;;5029831;28;20048;-75
2023/07/17 09:26:11;;;;;;;7.15;2.55;;;25.00;93.00;;;;;;5030168;28;20056;-75
2023/07/17 09:28:37;;;;;;;6.80;2.63;;;25.10;92.60;;;;;;5030072;28;20050;-74
2023/07/17 09:31:03;;;;;;;7.72;2.55;;;25.50;93.00;;;;;;5030153;28;20490;-75
2023/07/17 09:33:34;;;;;;;8.40;2.53;;;25.80;92.60;;;;;;5030529;28;20042;-78
2023/07/17 09:36:00;;;;;;;8.20;2.67;;;26.10;92.50;;;;;;5028954;28;20498;-75
2023/07/17 09:38:26;;;;;;;8.20;2.25;;;26.40;91.60;;;;;;5012403;28;20053;-75
2023/07/17 09:40:52;;;;;;;7.95;2.60;;;26.40;90.40;;;;;;5030147;28;20042;-79
2023/07/17 09:43:31;;;;;;;7.53;2.60;;;26.40;90.60;;;;;;5029068;28;20057;-73
2023/07/17 09:45:59;;;;;;;7.50;2.72;;;26.40;90.50;;;;;;5029323;28;20628;-74
2023/07/17 09:48:26;;;;;;;6.05;2.45;;;26.70;91.00;;;;;;5030128;28;20045;-71
2023/07/17 09:50:52;;;;;;;7.28;2.13;;;26.60;90.80;;;;;;5030452;28;20081;-70
2023/07/17 09:53:20;;;;;;;5.72;2.17;;;26.60;91.10;;;;;;5032547;28;20080;-72
2023/07/17 09:55:50;;;;;;;6.10;2.20;;;26.60;90.80;;;;;;5033655;28;20041;-71
2023/07/17 09:58:17;;;;;;;9.02;2.40;;;26.80;90.90;;;;;;5033491;28;20050;-72
2023/07/17 10:00:44;;;;;;;7.00;2.22;;;26.80;90.30;;;;;;5033461;28;20057;-77
2023/07/17 10:03:13;;;;;;;6.72;2.45;;;27.00;90.30;;;;;;5032164;28;20088;-74
2023/07/17 10:05:38;;;;;;;6.38;2.45;;;26.60;89.80;;;;;;5030382;28;20083;-72
2023/07/17 10:08:07;;;;;;;8.80;2.60;;;26.40;90.60;;;;;;5030765;28;20050;-73
2023/07/17 10:10:32;;;;;;;5.88;2.10;;;26.40;90.50;;;;;;5033260;28;20415;-72
2023/07/17 10:12:59;;;;;;;7.95;2.28;;;26.40;91.00;;;;;;5033068;28;20057;-72
2023/07/17 10:15:25;;;;;;;8.55;2.42;;;26.40;91.00;;;;;;5033206;28;20041;-71
2023/07/17 10:17:56;;;;;;;6.65;2.25;;;26.20;90.80;;;;;;5032437;28;20499;-71
2023/07/17 10:20:22;;;;;;;5.15;2.00;;;26.10;90.30;;;;;;5033392;28;20049;-68
2023/07/17 10:22:49;;;;;;;5.97;1.92;;;26.10;90.60;;;;;;5031448;28;20068;-69
2023/07/17 10:25:18;;;;;;;6.78;2.10;;;26.00;90.50;;;;;;5031932;28;20180;-69
2023/07/17 10:27:51;;;;;;;6.20;2.17;;;26.00;90.60;;;;;;5030425;28;20045;-68
2023/07/17 10:30:31;;;;;;;6.60;2.22;;;26.10;91.10;;;;;;5033615;28;20046;-70
2023/07/17 10:33:19;;;;;;;5.53;2.28;;;26.10;90.50;;;;;;5033658;28;20049;-69
2023/07/17 10:36:00;;;;;;;12.50;2.60;;;26.20;90.90;;;;;;5032165;28;20456;-70
2023/07/17 10:38:31;;;;;;;8.18;2.33;;;26.20;91.10;;;;;;5032379;28;20057;-69
2023/07/17 10:41:11;;;;;;;7.47;2.60;;;25.90;90.70;;;;;;5031683;28;20041;-69
2023/07/17 10:43:37;;;;;;;5.93;2.47;;;25.60;91.00;;;;;;5030591;28;20053;-68
2023/07/17 10:46:11;;;;;;;7.45;2.10;;;25.40;90.80;;;;;;5030959;28;20128;-69
2023/07/17 10:48:37;;;;;;;6.07;2.17;;;25.30;90.60;;;;;;5032369;28;20049;-71
2023/07/17 10:51:02;;;;;;;7.25;2.22;;;25.20;91.20;;;;;;5032214;28;20296;-70
2023/07/17 10:53:28;;;;;;;6.28;2.25;;;25.10;91.40;;;;;;5032875;28;20060;-71
2023/07/17 10:55:54;;;;;;;5.03;1.98;;;25.10;91.60;;;;;;5031541;28;20114;-69
2023/07/17 10:58:21;;;;;;;5.53;2.80;;;25.20;91.70;;;;;;5032300;28;20103;-68
2023/07/17 11:00:47;;;;;;;7.25;2.35;;;25.10;91.50;;;;;;5014295;28;20065;-67
2023/07/17 11:03:14;;;;;;;6.35;2.47;;;25.20;91.80;;;;;;5031253;28;20057;-69
2023/07/17 11:05:41;;;;;;;5.43;2.35;;;25.00;91.60;;;;;;5047791;28;20052;-69
2023/07/17 11:08:08;;;;;;;5.32;2.17;;;25.00;90.90;;;;;;5029114;28;20482;-68
2023/07/17 11:10:40;;;;;;;6.28;2.40;;;25.10;90.50;;;;;;5030814;28;20049;-70
2023/07/17 11:13:07;;;;;;;5.88;2.40;;;25.00;90.60;;;;;;5030957;28;20053;-68
2023/07/17 11:15:34;;;;;;;8.30;2.65;;;25.20;91.30;;;;;;5032195;28;20391;-69
2023/07/17 11:18:02;;;;;;;5.20;2.50;;;25.40;90.90;;;;;;5031491;28;20085;-68
2023/07/17 11:20:29;;;;;;;7.88;2.53;;;25.30;90.50;;;;;;5031549;28;20057;-68
2023/07/17 11:22:55;;;;;;;7.88;2.20;;;25.30;90.40;;;;;;5031766;28;20406;-69
2023/07/17 11:25:26;;;;;;;6.85;2.25;;;25.40;90.40;;;;;;5030854;28;20111;-69
2023/07/17 11:27:53;;;;;;;5.13;2.13;;;25.40;90.30;;;;;;5031732;28;20152;-69
2023/07/17 11:30:21;;;;;;;5.32;1.95;;;25.10;90.50;;;;;;5032243;28;20053;-68
2023/07/17 11:33:07;;;;;;;6.40;2.20;;;24.80;90.80;;;;;;5032171;28;20115;-68
2023/07/17 11:35:48;;;;;;;5.82;2.42;;;24.60;91.00;;;;;;5034482;28;20048;-67
2023/07/17 11:38:18;;;;;;;8.52;2.65;;;24.50;91.40;;;;;;5033730;28;20049;-69
2023/07/17 11:41:02;;;;;;;4.90;2.13;;;24.50;91.50;;;;;;5032372;28;20140;-67
2023/07/17 11:43:31;;;;;;;7.22;2.60;;;24.50;91.50;;;;;;5033640;28;20050;-66
2023/07/17 11:46:02;;;;;;;6.38;2.72;;;24.40;91.50;;;;;;5032416;28;20049;-70
2023/07/17 11:48:30;;;;;;;5.95;2.50;;;24.40;91.50;;;;;;5031805;28;20053;-70
2023/07/17 11:50:56;;;;;;;6.88;2.53;;;24.60;91.50;;;;;;5032902;28;20128;-70
2023/07/17 11:53:23;;;;;;;5.65;2.60;;;24.60;91.20;;;;;;5033110;28;20049;-69
2023/07/17 11:55:50;;;;;;;5.63;2.10;;;24.60;91.00;;;;;;5033349;28;20055;-70
2023/07/17 11:58:16;;;;;;;5.18;2.10;;;24.80;91.00;;;;;;5031849;28;20047;-68
2023/07/17 12:00:46;;;;;;;6.82;2.38;;;24.80;91.00;;;;;;5032200;28;20550;-71
2023/07/17 12:03:11;;;;;;;7.10;2.47;;;24.80;91.20;;;;;;5032729;28;20539;-70
2023/07/17 12:05:38;;;;;;;5.22;2.60;;;24.50;91.50;;;;;;5032902;28;20442;-71
2023/07/17 12:08:04;;;;;;;4.97;2.10;;;24.20;91.40;;;;;;5031362;28;20487;-71
2023/07/17 12:10:31;;;;;;;8.02;2.13;;;24.30;91.50;;;;;;5031637;28;20131;-71
2023/07/17 12:12:57;;;;;;;9.75;2.53;;;24.40;91.50;;;;;;5032123;28;20392;-72
2023/07/17 12:15:23;;;;;;;9.20;2.47;;;24.30;91.60;;;;;;5031663;28;20041;-70
2023/07/17 12:17:49;;;;;;;6.80;2.50;;;24.10;92.00;;;;;;5032818;28;20045;-72
2023/07/17 12:20:15;;;;;;;9.32;2.50;;;24.00;93.80;;;;;;5029032;28;20463;-71
2023/07/17 12:22:42;;;;;;;5.85;2.30;;;23.50;95.20;;;;;;5032901;28;20050;-71
2023/07/17 12:25:08;;;;;;;8.48;2.70;;;23.40;95.90;;;;;;5032390;28;20056;-71
2023/07/17 12:27:34;;;;;;;8.45;2.47;;;23.40;95.60;;;;;;5032855;28;20052;-70
2023/07/17 12:30:00;;;;;;;10.38;2.58;;;23.50;95.20;;;;;;5014528;28;20053;-71
2023/07/17 12:32:26;;;;;;;6.25;2.25;;;23.70;94.50;;;;;;5014955;28;20046;-73
2023/07/17 12:34:52;;;;;;;8.13;2.40;;;23.80;94.60;;;;;;4998821;28;20056;-73
2023/07/17 12:37:17;;;;;;;11.13;2.70;;;23.90;94.00;;;;;;5031016;28;20179;-71
2023/07/17 12:39:43;;;;;;;6.25;2.20;;;23.90;93.60;;;;;;5032655;28;20041;-73
2023/07/17 12:42:09;;;;;;;11.50;2.90;;;23.80;93.70;;;;;;5031121;28;20061;-73